Weather History for Ainsworth, NE

Change the Weather History Date:

Monday, July 29, 2013

  Actual Average Record
Temperature  
Mean Temperature 69 °F -  
Max Temperature 77 °F 83 °F 102 °F (2006)
Min Temperature 61 °F 61 °F 51 °F (2004)
Cooling Degree Days 4    
Growing Degree Days 19 (Base 50)    
Moisture  
Dew Point 61 °F    
Average Humidity 82    
Maximum Humidity 97    
Minimum Humidity 59    
Precipitation  
Precipitation 0.00 in - - ()
Sea Level Pressure  
Sea Level Pressure 30.01 in    
Wind  
Wind Speed 9 mph (SSE)    
Max Wind Speed 13 mph    
Max Gust Speed 18 mph    
Visibility 10 miles    
Events Rain    
Averages and records for this station are not official NWS values.
T = Trace of Precipitation, MM = Missing Value Source: NWS Daily Summary

Daily Weather History Graph

Daily Weather History Graph

Search for Another Location

Airport:

Trip Planner

Search our weather history database for the weather conditions in past years. The results will help you decide how hot, cold, wet, or windy it might be!

Date:

Astronomy

Jul. 29, 2013 Rise Set
Actual Time 6:29 AM CDT 9:03 PM CDT
Civil Twilight 5:56 AM CDT 9:35 PM CDT
Nautical Twilight 5:16 AM CDT 10:15 PM CDT
Astronomical Twilight 4:30 AM CDT 11:00 PM CDT
Moon 12:15 AM CDT (7/29) 2:24 PM CDT (7/29)
Length of Visible Light 15h 38m
Length of Day
14h 33m
Waning Gibbous, 50% of the Moon is Illuminated
Jul 29
Waning Gibbous
Jul 29
Last Quarter
Aug 6
New
Aug 14
First Quarter
Aug 20
Full

Hourly Weather History & Observations

Time (CDT) Temp. Dew Point Humidity Pressure Visibility Wind Dir Wind Speed Gust Speed Precip Events Conditions
12:15 AM 63.0 °F 54.7 °F 74% 30.03 in 10.0 mi South 8.1 mph - N/A   Overcast
12:35 AM 62.8 °F 54.7 °F 75% 30.03 in 10.0 mi South 8.1 mph - N/A   Overcast
12:55 AM 62.8 °F 54.5 °F 74% 30.03 in 10.0 mi South 10.4 mph - N/A   Overcast
1:15 AM 62.8 °F 54.9 °F 75% 30.04 in 10.0 mi SSE 8.1 mph - N/A   Overcast
1:35 AM 62.8 °F 55.4 °F 77% 30.03 in 10.0 mi South 9.2 mph 17.3 mph N/A   Overcast
1:55 AM 62.8 °F 55.9 °F 78% 30.04 in 10.0 mi South 9.2 mph - N/A   Overcast
2:15 AM 62.8 °F 56.3 °F 79% 30.03 in 10.0 mi South 8.1 mph - N/A   Overcast
2:55 AM 62.8 °F 56.8 °F 81% 30.02 in 10.0 mi SSE 8.1 mph - N/A   Overcast
3:15 AM 62.6 °F 57.2 °F 82% 30.01 in 10.0 mi SSE 9.2 mph - N/A   Overcast
3:35 AM 62.6 °F 57.2 °F 82% 30.01 in 10.0 mi SSE 6.9 mph - N/A   Overcast
3:55 AM 62.6 °F 57.2 °F 82% 30.01 in 10.0 mi SSE 8.1 mph - N/A   Overcast
4:15 AM 62.6 °F 57.4 °F 83% 30.01 in 10.0 mi SSE 8.1 mph - N/A   Overcast
4:35 AM 62.6 °F 57.9 °F 85% 30.01 in 10.0 mi SSE 9.2 mph - N/A   Overcast
4:55 AM 62.2 °F 58.5 °F 87% 30.01 in 10.0 mi SSE 8.1 mph - N/A   Overcast
5:15 AM 62.2 °F 58.3 °F 87% 29.99 in 10.0 mi SSE 11.5 mph - N/A   Overcast
5:35 AM 62.1 °F 58.8 °F 89% 29.99 in 10.0 mi SSE 9.2 mph - N/A   Overcast
5:55 AM 61.9 °F 59.2 °F 91% 29.99 in 10.0 mi SSE 12.7 mph 18.4 mph N/A   Overcast
6:15 AM 61.7 °F 59.9 °F 94% 29.99 in 10.0 mi SSE 11.5 mph - N/A   Overcast
6:35 AM 61.7 °F 59.9 °F 94% 29.99 in 10.0 mi SSE 12.7 mph - N/A   Overcast
6:55 AM 61.7 °F 60.4 °F 96% 29.99 in 5.0 mi SSE 8.1 mph - N/A Rain Light Rain
7:15 AM 61.7 °F 60.8 °F 97% 29.99 in 10.0 mi SE 10.4 mph - N/A   Overcast
7:35 AM 61.7 °F 60.6 °F 96% 29.99 in 10.0 mi SSE 10.4 mph - N/A   Overcast
7:55 AM 61.7 °F 60.4 °F 96% 29.99 in 10.0 mi SSE 9.2 mph - N/A   Overcast
8:15 AM 61.9 °F 60.4 °F 95% 29.99 in 10.0 mi SE 11.5 mph - N/A   Overcast
8:35 AM 62.1 °F 60.3 °F 94% 29.99 in 10.0 mi SE 11.5 mph - N/A   Overcast
8:55 AM 62.2 °F 60.4 °F 94% 29.99 in 10.0 mi SE 12.7 mph - N/A   Overcast
9:15 AM 62.2 °F 60.8 °F 95% 29.99 in 7.0 mi SSE 11.5 mph 17.3 mph N/A   Overcast
9:35 AM 62.6 °F 60.8 °F 94% 29.99 in 7.0 mi SE 10.4 mph - N/A   Overcast
9:55 AM 62.8 °F 61.0 °F 94% 30.00 in 10.0 mi SE 9.2 mph - N/A   Overcast
10:15 AM 63.5 °F 61.0 °F 91% 30.00 in 10.0 mi SSE 8.1 mph - N/A   Overcast
10:35 AM 63.9 °F 61.2 °F 91% 30.01 in 10.0 mi SSE 6.9 mph - N/A   Overcast
10:55 AM 64.6 °F 61.3 °F 89% 30.01 in 10.0 mi SSE 9.2 mph - N/A   Overcast
11:15 AM 64.4 °F 61.7 °F 91% 30.01 in 10.0 mi South 9.2 mph - N/A   Overcast
11:35 AM 64.6 °F 62.1 °F 92% 30.01 in 7.0 mi SSE 9.2 mph - N/A   Overcast
11:55 AM 64.9 °F 62.6 °F 92% 30.01 in 7.0 mi SSE 9.2 mph - N/A   Overcast
12:15 PM 65.8 °F 61.7 °F 86% 30.01 in 10.0 mi South 10.4 mph - N/A   Overcast
12:35 PM 66.7 °F 62.1 °F 85% 30.01 in 10.0 mi SSE 11.5 mph - N/A   Overcast
12:55 PM 67.8 °F 61.9 °F 81% 30.00 in 10.0 mi South 11.5 mph - N/A   Overcast
1:15 PM 68.4 °F 62.1 °F 80% 30.00 in 10.0 mi South 10.4 mph - N/A   Overcast
1:35 PM 68.9 °F 61.7 °F 78% 30.01 in 10.0 mi South 9.2 mph - N/A   Overcast
1:55 PM 69.8 °F 61.9 °F 76% 30.00 in 10.0 mi SSW 9.2 mph - N/A   Overcast
2:15 PM 69.1 °F 61.7 °F 77% 30.01 in 10.0 mi South 6.9 mph - N/A   Overcast
2:35 PM 69.8 °F 62.1 °F 76% 30.01 in 10.0 mi South 5.8 mph - N/A   Overcast
2:55 PM 70.7 °F 62.1 °F 74% 30.01 in 10.0 mi SSE 5.8 mph - N/A   Overcast
3:15 PM 71.4 °F 62.1 °F 72% 30.01 in 10.0 mi South 4.6 mph - N/A   Overcast
3:35 PM 72.5 °F 62.2 °F 70% 30.00 in 10.0 mi SSE 5.8 mph - N/A   Mostly Cloudy
3:55 PM 73.0 °F 62.6 °F 70% 30.01 in 10.0 mi SE 5.8 mph - N/A   Mostly Cloudy
4:15 PM 75.0 °F 62.8 °F 66% 30.01 in 10.0 mi South 4.6 mph - N/A   Mostly Cloudy
4:35 PM 75.4 °F 62.6 °F 64% 29.99 in 10.0 mi SSE 6.9 mph - N/A   Mostly Cloudy
4:55 PM 76.5 °F 62.6 °F 62% 29.99 in 10.0 mi SE 10.4 mph - N/A   Overcast
5:15 PM 77.2 °F 62.1 °F 59% 29.99 in 10.0 mi SSW 9.2 mph - N/A   Mostly Cloudy
5:35 PM 76.1 °F 63.3 °F 64% 29.99 in 10.0 mi South 5.8 mph 9.2 mph N/A   Mostly Cloudy
5:55 PM 77.2 °F 63.0 °F 61% 29.99 in 10.0 mi SSE 9.2 mph - N/A   Mostly Cloudy
6:15 PM 76.3 °F 62.6 °F 62% 29.99 in 10.0 mi SSE 8.1 mph - N/A   Scattered Clouds
6:35 PM 76.8 °F 63.7 °F 64% 29.99 in 10.0 mi SSE 10.4 mph - N/A   Clear
6:55 PM 76.1 °F 63.3 °F 64% 29.99 in 10.0 mi SSE 8.1 mph - N/A   Clear
7:15 PM 75.6 °F 63.0 °F 65% 29.98 in 10.0 mi SSE 9.2 mph - N/A   Clear
7:35 PM 75.2 °F 62.6 °F 65% 29.98 in 10.0 mi SSE 8.1 mph - N/A   Clear
7:55 PM 74.8 °F 62.6 °F 66% 29.99 in 10.0 mi SSE 8.1 mph - N/A   Clear
8:15 PM 73.6 °F 62.6 °F 68% 29.99 in 10.0 mi SSE 6.9 mph - N/A   Clear
8:35 PM 71.8 °F 62.6 °F 73% 30.00 in 10.0 mi SSE 8.1 mph - N/A   Clear
8:55 PM 70.2 °F 62.6 °F 77% 30.01 in 10.0 mi SE 6.9 mph - N/A   Clear
9:15 PM 68.7 °F 62.6 °F 81% 30.03 in 10.0 mi SE 8.1 mph - N/A   Clear
9:35 PM 67.6 °F 63.5 °F 87% 30.04 in 10.0 mi SE 8.1 mph - N/A   Clear
9:55 PM 66.7 °F 63.7 °F 90% 30.05 in 10.0 mi SSE 10.4 mph - N/A   Clear
10:15 PM 66.2 °F 63.5 °F 91% 30.06 in 10.0 mi SSE 10.4 mph - N/A   Clear
10:35 PM 65.3 °F 63.5 °F 94% 30.06 in 10.0 mi SSE 10.4 mph - N/A   Clear
10:55 PM 64.8 °F 63.5 °F 96% 30.07 in 10.0 mi SSE 10.4 mph - N/A   Clear
11:15 PM 64.4 °F 63.1 °F 96% 30.07 in 10.0 mi SSE 11.5 mph - N/A   Clear
11:35 PM 64.2 °F 63.0 °F 96% 30.07 in 10.0 mi South 9.2 mph - N/A   Clear
11:55 PM 64.0 °F 63.0 °F 96% 30.07 in 7.0 mi South 9.2 mph - N/A   Mostly Cloudy